createdAt,value
2022-11-19T00:05:15.654Z,-1.19
2022-11-19T00:15:17.293Z,-1.22
2022-11-19T00:25:20.799Z,-1.23
2022-11-19T00:35:22.554Z,-1.32
2022-11-19T00:45:24.214Z,-1.32
2022-11-19T00:55:25.957Z,-1.22
2022-11-19T01:05:27.612Z,-1.18
2022-11-19T01:15:29.383Z,-1.19
2022-11-19T01:25:31.016Z,-1.24
2022-11-19T01:35:34.151Z,-1.33
2022-11-19T01:45:40.025Z,-1.37
2022-11-19T01:55:43.740Z,-1.35
2022-11-19T02:05:46.318Z,-1.21
2022-11-19T02:15:56.934Z,-1.08
2022-11-19T02:26:13.822Z,-1.16
2022-11-19T02:36:21.063Z,-1.39
2022-11-19T02:46:23.825Z,-1.55
2022-11-19T02:56:49.190Z,-1.60
2022-11-19T03:06:50.944Z,-1.64
2022-11-19T03:17:08.988Z,-1.62
2022-11-19T03:27:24.454Z,-1.63
2022-11-19T03:37:30.397Z,-1.63
2022-11-19T03:47:36.622Z,-1.64
2022-11-19T03:57:38.739Z,-1.65
2022-11-19T04:07:40.516Z,-1.65
2022-11-19T04:17:42.314Z,-1.60
2022-11-19T04:27:46.789Z,-1.60
2022-11-19T04:37:48.737Z,-1.57
2022-11-19T04:47:50.365Z,-1.63
2022-11-19T04:57:52.806Z,-1.69
2022-11-19T05:07:54.614Z,-1.73
2022-11-19T05:17:56.378Z,-1.74
2022-11-19T05:27:58.106Z,-1.71
2022-11-19T05:38:00.061Z,-1.73
2022-11-19T05:48:01.776Z,-1.78
2022-11-19T05:58:03.607Z,-1.75
2022-11-19T06:08:05.885Z,-1.72
2022-11-19T06:18:07.591Z,-1.62
2022-11-19T06:28:09.325Z,-1.58
2022-11-19T06:38:11.185Z,-1.63
2022-11-19T06:48:12.798Z,-1.65
2022-11-19T06:58:14.920Z,-1.72
2022-11-19T07:08:16.720Z,-1.69
2022-11-19T07:18:18.351Z,-1.65
2022-11-19T07:28:19.951Z,-1.65
2022-11-19T07:38:21.640Z,-1.62
2022-11-19T07:48:23.325Z,-1.62
2022-11-19T07:58:24.959Z,-1.52
2022-11-19T08:08:26.670Z,-1.25
2022-11-19T08:18:31.348Z,-1.03
2022-11-19T08:28:34.350Z,-0.79
2022-11-19T08:38:38.778Z,-0.52
2022-11-19T08:48:40.911Z,-0.50
2022-11-19T08:58:42.749Z,-0.66
2022-11-19T09:08:45.356Z,-0.51
2022-11-19T09:18:47.182Z,-0.47
2022-11-19T09:28:54.571Z,-0.39
2022-11-19T09:38:57.504Z,-0.44
2022-11-19T09:49:05.384Z,-0.65
2022-11-19T09:59:38.025Z,-0.62
2022-11-19T10:10:12.686Z,-0.46
2022-11-19T10:20:28.183Z,-0.26
2022-11-19T10:30:30.751Z,0.06
2022-11-19T10:40:48.276Z,0.12
2022-11-19T10:50:50.962Z,0.09
2022-11-19T11:00:55.146Z,0.08
2022-11-19T11:10:58.299Z,0.08
2022-11-19T11:21:00.128Z,0.18
2022-11-19T11:31:03.061Z,0.06
2022-11-19T11:41:53.729Z,0.01
2022-11-19T11:51:41.488Z,0.29
2022-11-19T12:01:56.445Z,0.37
2022-11-19T12:12:06.348Z,0.49
2022-11-19T12:22:32.627Z,0.46
2022-11-19T12:32:53.930Z,0.42
2022-11-19T12:43:17.350Z,0.37
2022-11-19T12:53:56.346Z,0.24
2022-11-19T13:04:04.929Z,0.16
2022-11-19T13:14:34.965Z,0.14
2022-11-19T13:24:52.645Z,0.04
2022-11-19T13:35:13.344Z,-0.07
2022-11-19T13:45:16.856Z,-0.15
2022-11-19T13:55:34.745Z,-0.20
2022-11-19T14:05:51.623Z,-0.27
2022-11-19T14:16:51.550Z,-0.41
2022-11-19T14:27:01.915Z,-0.50
2022-11-19T14:37:15.155Z,-0.52
2022-11-19T14:47:23.834Z,-0.45
2022-11-19T14:57:38.915Z,-0.56
2022-11-19T15:08:15.883Z,-0.83
2022-11-19T15:18:41.112Z,-1.10
2022-11-19T15:28:54.423Z,-1.35
2022-11-19T15:39:35.419Z,-1.54
2022-11-19T15:49:44.839Z,-1.69
2022-11-19T15:59:53.167Z,-1.84
2022-11-19T16:09:56.396Z,-1.89
2022-11-19T16:20:10.668Z,-1.81
2022-11-19T16:30:21.795Z,-1.74
2022-11-19T16:40:24.274Z,-1.83
2022-11-19T16:50:43.795Z,-1.96
2022-11-19T17:00:52.366Z,-2.11
2022-11-19T17:11:33.019Z,-2.19
2022-11-19T17:21:35.469Z,-2.23
2022-11-19T17:31:37.292Z,-2.17
2022-11-19T17:41:58.243Z,-2.06
2022-11-19T17:51:59.892Z,-1.97
2022-11-19T18:02:01.674Z,-2.06
2022-11-19T18:12:05.804Z,-2.14
2022-11-19T18:22:12.832Z,-2.14
2022-11-19T18:32:16.176Z,-2.12
2022-11-19T18:42:17.856Z,-2.11
2022-11-19T18:52:19.867Z,-2.08
2022-11-19T19:02:21.591Z,-2.03
2022-11-19T19:12:23.582Z,-2.00
2022-11-19T19:22:25.212Z,-1.93
2022-11-19T19:32:27.507Z,-1.76
2022-11-19T19:42:29.369Z,-1.60
2022-11-19T19:52:31.159Z,-1.57
2022-11-19T20:02:33.226Z,-1.69
2022-11-19T20:12:54.202Z,-1.86
2022-11-19T20:22:57.208Z,-2.03
2022-11-19T20:32:59.243Z,-2.19
2022-11-19T20:43:19.901Z,-2.32
2022-11-19T20:53:24.345Z,-2.45
2022-11-19T21:03:26.293Z,-2.56
2022-11-19T21:13:28.243Z,-2.58
2022-11-19T21:23:30.492Z,-2.53
2022-11-19T21:33:32.250Z,-2.38
2022-11-19T21:44:07.916Z,-2.29
2022-11-19T21:54:09.759Z,-2.39
2022-11-19T22:04:14.978Z,-2.54
2022-11-19T22:14:16.786Z,-2.66
2022-11-19T22:24:18.761Z,-2.75
2022-11-19T22:34:20.456Z,-2.80
2022-11-19T22:44:22.457Z,-2.81
2022-11-19T22:54:25.301Z,-2.81
2022-11-19T23:04:28.964Z,-2.82
2022-11-19T23:14:31.000Z,-2.82
2022-11-19T23:24:32.982Z,-2.82
2022-11-19T23:34:34.754Z,-2.76
2022-11-19T23:44:36.425Z,-2.70
2022-11-19T23:54:38.221Z,-2.69
